Time;durP1;ratioP1;P1;durP2;ratioP2;P2;SDS_P1;SDS_P2;PMS_P1;PMS_P2;Temp;Humidity;BMP_temperature;BMP_pressure;BME280_temperature;BME280_humidity;BME280_pressure;Samples;Min_cycle;Max_cycle;Signal;HPM_P1;HPM_P2
2022/11/27 00:01:23;;;;;;;32.95;6.68;;;;;;;10.94;79.29;99903.63;4921393;29;20139;-46
2022/11/27 00:03:50;;;;;;;20.27;4.15;;;;;;;10.92;79.29;99895.69;4930928;29;20048;-46
2022/11/27 00:06:19;;;;;;;22.40;4.53;;;;;;;10.90;79.11;99897.22;4930987;29;20498;-47
2022/11/27 00:08:47;;;;;;;27.05;5.60;;;;;;;10.87;79.19;99900.72;4930957;29;20056;-49
2022/11/27 00:11:17;;;;;;;25.98;5.95;;;;;;;10.82;79.01;99904.59;4931146;29;20070;-53
2022/11/27 00:13:45;;;;;;;28.98;5.78;;;;;;;10.77;78.92;99912.41;4933126;29;20051;-48
2022/11/27 00:16:13;;;;;;;29.27;5.60;;;;;;;10.74;79.04;99921.44;4933982;29;20123;-47
2022/11/27 00:18:42;;;;;;;24.65;7.32;;;;;;;10.69;78.95;99919.78;4935052;29;20048;-46
2022/11/27 00:21:18;;;;;;;31.63;5.32;;;;;;;10.64;78.78;99917.31;4928698;29;20083;-46
2022/11/27 00:23:44;;;;;;;28.85;6.03;;;;;;;10.62;78.93;99921.56;4934579;29;20193;-48
2022/11/27 00:26:11;;;;;;;28.13;5.35;;;;;;;10.57;78.95;99933.75;4934482;29;20058;-46
2022/11/27 00:28:39;;;;;;;24.10;6.00;;;;;;;10.53;79.00;99924.59;4934601;29;20087;-46
2022/11/27 00:31:14;;;;;;;35.03;6.85;;;;;;;10.50;78.99;99921.75;4917546;29;20086;-46
2022/11/27 00:33:41;;;;;;;31.00;5.18;;;;;;;10.47;78.88;99933.53;4926076;29;20079;-47
2022/11/27 00:36:09;;;;;;;27.75;5.88;;;;;;;10.44;78.68;99934.25;4934985;29;20044;-46
2022/11/27 00:38:40;;;;;;;25.20;5.10;;;;;;;10.43;78.54;99935.44;4934674;29;20107;-55
2022/11/27 00:41:16;;;;;;;27.53;5.10;;;;;;;10.42;78.73;99953.19;4917292;29;20098;-46
2022/11/27 00:43:43;;;;;;;26.27;6.93;;;;;;;10.36;78.72;99964.56;4930097;29;20067;-51
2022/11/27 00:46:20;;;;;;;29.45;5.10;;;;;;;10.34;78.62;99960.56;4926795;29;20044;-51
2022/11/27 00:48:54;;;;;;;36.78;8.23;;;;;;;10.31;78.84;99970.38;4928636;29;20055;-49
2022/11/27 00:51:22;;;;;;;24.75;4.50;;;;;;;10.29;78.82;99977.44;4949193;29;20036;-45
2022/11/27 00:53:50;;;;;;;24.20;5.25;;;;;;;10.28;78.80;99971.09;4933804;29;20056;-45
2022/11/27 00:56:20;;;;;;;22.83;5.82;;;;;;;10.25;78.91;99977.34;4932170;29;20048;-49
2022/11/27 00:58:46;;;;;;;31.52;6.05;;;;;;;10.22;78.85;99982.78;4932502;29;20082;-45
2022/11/27 01:01:22;;;;;;;35.35;8.50;;;;;;;10.21;78.79;99976.47;4931173;29;20051;-45
2022/11/27 01:03:49;;;;;;;24.45;6.13;;;;;;;10.19;78.85;99995.38;4928668;29;20350;-46
2022/11/27 01:06:19;;;;;;;27.23;6.95;;;;;;;10.17;78.87;99992.19;4931683;29;20587;-45
2022/11/27 01:08:47;;;;;;;30.00;6.15;;;;;;;10.17;78.88;100003.25;4932534;29;20059;-47
2022/11/27 01:11:16;;;;;;;28.48;6.40;;;;;;;10.15;79.06;100002.81;4932134;29;20040;-46
2022/11/27 01:13:45;;;;;;;35.30;5.75;;;;;;;10.14;79.02;100003.97;4932278;29;20459;-45
2022/11/27 01:16:18;;;;;;;35.50;6.20;;;;;;;10.12;79.25;100003.53;4932317;29;20051;-47
2022/11/27 01:18:47;;;;;;;22.02;4.57;;;;;;;10.09;79.14;100023.56;4932418;29;20131;-47
2022/11/27 01:21:17;;;;;;;53.45;7.07;;;;;;;10.09;79.06;100006.16;4912854;29;20075;-47
2022/11/27 01:23:46;;;;;;;27.85;5.43;;;;;;;10.05;79.17;100008.88;4930496;29;20051;-49
2022/11/27 01:26:16;;;;;;;23.23;5.20;;;;;;;10.03;79.16;100019.50;4931599;29;20051;-45
2022/11/27 01:28:46;;;;;;;29.30;5.35;;;;;;;10.02;79.19;100012.34;4931625;29;20075;-45
2022/11/27 01:31:16;;;;;;;30.50;5.15;;;;;;;10.00;79.34;100003.63;4914824;29;20395;-46
2022/11/27 01:33:44;;;;;;;27.17;5.65;;;;;;;10.00;79.17;100008.34;4931653;29;20418;-46
2022/11/27 01:36:14;;;;;;;27.83;4.63;;;;;;;9.95;79.18;100012.19;4931558;29;20056;-52
2022/11/27 01:38:41;;;;;;;24.98;5.93;;;;;;;9.94;79.17;100023.59;4931557;29;20107;-45
2022/11/27 01:41:14;;;;;;;27.38;4.75;;;;;;;9.91;79.04;100019.59;4930913;29;20072;-46
2022/11/27 01:43:45;;;;;;;27.38;6.90;;;;;;;9.89;79.09;100013.63;4914628;29;20059;-49
2022/11/27 01:46:21;;;;;;;27.80;6.00;;;;;;;9.88;79.03;100025.81;4931067;29;20060;-46
2022/11/27 01:48:52;;;;;;;31.73;6.40;;;;;;;9.88;79.18;100028.59;4931444;29;20157;-45
2022/11/27 01:51:20;;;;;;;24.45;7.00;;;;;;;9.86;79.15;100041.16;4931529;29;20130;-45
2022/11/27 01:53:49;;;;;;;27.67;4.80;;;;;;;9.83;79.05;100028.88;4931703;29;20168;-46
2022/11/27 01:56:18;;;;;;;22.85;5.28;;;;;;;9.82;79.14;100039.13;4931520;29;20069;-48
2022/11/27 01:58:46;;;;;;;32.58;6.13;;;;;;;9.80;79.19;100032.34;4931215;29;20051;-45
2022/11/27 02:01:13;;;;;;;31.42;5.20;;;;;;;9.80;79.20;100027.63;4931090;29;20475;-45
2022/11/27 02:03:40;;;;;;;28.10;5.88;;;;;;;9.79;79.11;100033.53;4929426;29;20048;-45
2022/11/27 02:06:12;;;;;;;27.27;7.20;;;;;;;9.78;79.19;100038.25;4931038;29;20059;-51
2022/11/27 02:08:39;;;;;;;21.55;5.03;;;;;;;9.80;79.14;100040.63;4931245;29;20075;-45
2022/11/27 02:11:32;;;;;;;23.40;5.47;;;;;;;9.78;79.25;100045.72;4931013;29;20044;-46
2022/11/27 02:14:24;;;;;;;21.58;6.22;;;;;;;9.75;79.45;100040.91;4929150;29;20048;-45
2022/11/27 02:17:26;;;;;;;23.63;5.22;;;;;;;9.72;79.23;100038.84;4927588;29;20055;-45
2022/11/27 02:20:16;;;;;;;23.98;5.00;;;;;;;9.70;79.52;100055.81;4923486;29;20573;-45
2022/11/27 02:23:04;;;;;;;31.08;6.75;;;;;;;9.68;79.39;100060.09;4913647;29;20130;-46
2022/11/27 02:25:34;;;;;;;23.75;4.00;;;;;;;9.66;79.57;100052.13;4930735;29;20039;-47
2022/11/27 02:28:17;;;;;;;22.73;5.18;;;;;;;9.65;79.51;100041.44;4930541;29;20048;-45
2022/11/27 02:30:53;;;;;;;26.75;4.38;;;;;;;9.62;79.54;100042.16;4930344;29;20132;-45
2022/11/27 02:33:22;;;;;;;35.97;7.10;;;;;;;9.61;79.72;100048.84;4929199;29;20067;-49
2022/11/27 02:36:06;;;;;;;37.63;5.72;;;;;;;9.58;80.02;100036.53;4924929;29;20054;-46
2022/11/27 02:39:15;;;;;;;25.63;4.32;;;;;;;9.55;79.96;100036.44;4925472;29;20047;-45
2022/11/27 02:42:07;;;;;;;32.13;7.03;;;;;;;9.53;80.04;100038.78;4890318;29;20498;-45
2022/11/27 02:44:40;;;;;;;29.63;5.60;;;;;;;9.51;80.00;100036.34;4889741;29;20060;-46
2022/11/27 02:47:08;;;;;;;31.10;6.05;;;;;;;9.49;80.04;100041.44;4918523;29;20058;-45
2022/11/27 02:49:38;;;;;;;32.83;8.00;;;;;;;9.47;80.20;100040.19;4930245;29;20047;-46
2022/11/27 02:52:06;;;;;;;20.25;5.38;;;;;;;9.46;80.22;100035.81;4930154;29;20135;-45
2022/11/27 02:54:34;;;;;;;47.28;7.70;;;;;;;9.43;80.17;100029.03;4929925;29;20052;-45
2022/11/27 02:57:03;;;;;;;27.88;6.13;;;;;;;9.41;80.30;100036.06;4913013;29;20509;-45
2022/11/27 02:59:33;;;;;;;29.02;4.95;;;;;;;9.39;80.21;100041.16;4929828;29;20047;-45
2022/11/27 03:02:06;;;;;;;24.58;4.05;;;;;;;9.38;80.35;100053.34;4973153;23;20107;-47
2022/11/27 03:04:42;;;;;;;21.20;6.28;;;;;;;9.38;80.28;100047.81;4966812;28;20133;-51
2022/11/27 03:07:21;;;;;;;21.52;5.85;;;;;;;9.37;80.34;100043.47;4968858;28;20090;-47
2022/11/27 03:09:52;;;;;;;19.05;5.53;;;;;;;9.34;80.31;100046.94;4968204;28;20042;-46
2022/11/27 03:12:19;;;;;;;26.20;4.82;;;;;;;9.33;80.26;100039.78;4960185;28;20053;-48
2022/11/27 03:14:47;;;;;;;33.22;7.70;;;;;;;9.31;80.29;100042.94;4967294;28;20114;-46
2022/11/27 03:17:28;;;;;;;26.85;4.90;;;;;;;9.31;80.20;100050.41;4967373;28;20086;-47
2022/11/27 03:20:16;;;;;;;27.02;6.35;;;;;;;9.31;80.26;100053.16;4950535;28;20043;-45
2022/11/27 03:22:45;;;;;;;31.63;6.22;;;;;;;9.31;80.19;100042.94;4967866;28;20054;-45
2022/11/27 03:25:12;;;;;;;21.63;5.05;;;;;;;9.29;80.11;100045.25;4968317;28;20057;-46
2022/11/27 03:27:46;;;;;;;25.73;4.45;;;;;;;9.28;79.95;100045.59;4963136;28;20065;-46
2022/11/27 03:30:16;;;;;;;26.40;5.55;;;;;;;9.27;80.19;100030.97;4967156;28;20519;-45
2022/11/27 03:32:43;;;;;;;27.90;5.05;;;;;;;9.27;80.05;100049.50;4968190;28;20043;-46
2022/11/27 03:35:14;;;;;;;28.95;5.40;;;;;;;9.25;80.24;100038.00;4967242;28;20125;-46
2022/11/27 03:37:41;;;;;;;31.65;6.07;;;;;;;9.22;80.13;100039.50;4967455;28;20053;-47
2022/11/27 03:40:09;;;;;;;23.70;6.80;;;;;;;9.21;80.20;100039.88;4968054;28;20054;-45
2022/11/27 03:42:57;;;;;;;37.83;6.85;;;;;;;9.18;80.22;100056.00;4967762;28;20146;-48
2022/11/27 03:45:57;;;;;;;24.33;4.82;;;;;;;9.17;80.28;100048.88;4961094;28;20125;-46
2022/11/27 03:48:42;;;;;;;31.27;6.40;;;;;;;9.19;80.16;100052.06;4970957;28;20086;-46
2022/11/27 03:51:26;;;;;;;24.95;4.72;;;;;;;9.19;80.14;100046.53;4972065;28;20102;-45
2022/11/27 03:54:22;;;;;;;35.00;6.80;;;;;;;9.17;80.19;100057.16;4972358;28;20051;-45
2022/11/27 03:57:09;;;;;;;33.03;7.22;;;;;;;9.15;80.25;100048.41;4971695;28;20054;-46
2022/11/27 03:59:39;;;;;;;30.63;5.28;;;;;;;9.13;80.19;100045.19;4961028;28;20077;-46
2022/11/27 04:02:12;;;;;;;25.52;5.75;;;;;;;9.10;80.26;100065.25;4963600;28;20090;-46
2022/11/27 04:04:40;;;;;;;37.17;5.53;;;;;;;9.09;80.22;100060.06;4954797;28;20054;-46
2022/11/27 04:07:15;;;;;;;22.95;4.75;;;;;;;9.06;80.30;100063.50;4969177;28;20049;-46
2022/11/27 04:09:42;;;;;;;28.33;4.93;;;;;;;9.06;80.27;100075.38;4961537;28;20035;-50
2022/11/27 04:12:09;;;;;;;35.63;5.25;;;;;;;9.03;80.22;100069.72;4971461;28;20070;-50
2022/11/27 04:14:36;;;;;;;25.60;4.38;;;;;;;9.01;80.07;100077.56;4970742;28;20581;-46
2022/11/27 04:17:03;;;;;;;28.23;5.53;;;;;;;9.00;80.10;100078.75;4971648;28;20521;-50
2022/11/27 04:19:30;;;;;;;20.98;4.82;;;;;;;8.97;80.09;100083.00;4961058;28;20563;-46
2022/11/27 04:21:57;;;;;;;32.65;4.53;;;;;;;8.96;79.95;100081.41;4967257;28;20055;-48
2022/11/27 04:24:24;;;;;;;31.88;7.35;;;;;;;8.93;79.95;100082.09;4971545;28;20501;-47
2022/11/27 04:26:51;;;;;;;26.77;4.85;;;;;;;8.91;80.08;100089.94;4971022;28;20039;-52
2022/11/27 04:29:17;;;;;;;27.92;4.78;;;;;;;8.90;80.01;100081.97;4971683;28;20086;-46
2022/11/27 04:31:44;;;;;;;32.30;6.70;;;;;;;8.89;80.07;100074.88;4971731;28;20412;-47
2022/11/27 04:34:11;;;;;;;26.50;4.63;;;;;;;8.88;80.04;100087.84;4969700;28;20062;-47
2022/11/27 04:36:38;;;;;;;22.05;3.97;;;;;;;8.86;80.08;100083.84;4942997;28;20047;-43
2022/11/27 04:39:05;;;;;;;26.60;6.63;;;;;;;8.85;80.04;100085.78;4971712;28;20094;-44
2022/11/27 04:41:32;;;;;;;28.30;6.45;;;;;;;8.85;79.96;100084.97;4970870;28;20062;-45
2022/11/27 04:43:58;;;;;;;28.58;6.63;;;;;;;8.82;80.03;100085.69;4971393;28;20042;-44
2022/11/27 04:46:25;;;;;;;22.73;6.60;;;;;;;8.81;79.96;100100.66;4971211;28;20086;-43
2022/11/27 04:48:53;;;;;;;34.22;6.40;;;;;;;8.79;79.96;100092.69;4960027;28;20043;-48
2022/11/27 04:51:19;;;;;;;30.25;5.63;;;;;;;8.75;80.03;100086.28;4971081;28;20070;-43
2022/11/27 04:53:46;;;;;;;25.67;7.25;;;;;;;8.75;79.92;100096.53;4970743;28;20077;-49
2022/11/27 04:56:13;;;;;;;28.20;5.63;;;;;;;8.73;80.07;100098.81;4971574;28;20481;-44
2022/11/27 04:58:40;;;;;;;21.83;4.03;;;;;;;8.70;80.03;100094.00;4970845;28;20058;-47
2022/11/27 05:01:08;;;;;;;29.17;5.15;;;;;;;8.68;79.96;100091.59;4970542;28;20404;-45
2022/11/27 05:03:35;;;;;;;27.88;6.13;;;;;;;8.68;79.84;100091.59;4969430;28;20051;-46
2022/11/27 05:06:02;;;;;;;20.88;4.88;;;;;;;8.68;79.85;100102.66;4970559;28;20161;-46
2022/11/27 05:08:31;;;;;;;32.45;5.07;;;;;;;8.67;79.84;100084.47;4970392;28;20129;-51
2022/11/27 05:11:26;;;;;;;25.75;4.95;;;;;;;8.66;79.76;100088.38;4959674;28;20488;-46
2022/11/27 05:14:13;;;;;;;24.63;4.70;;;;;;;8.63;79.75;100082.75;4952225;28;20043;-47
2022/11/27 05:16:45;;;;;;;24.63;5.22;;;;;;;8.61;79.64;100080.34;4970682;28;20047;-47
2022/11/27 05:19:13;;;;;;;28.67;4.82;;;;;;;8.61;79.63;100085.84;4972556;28;20049;-46
2022/11/27 05:21:41;;;;;;;22.83;4.47;;;;;;;8.59;79.69;100085.41;4976138;28;20411;-46
2022/11/27 05:24:08;;;;;;;29.92;4.75;;;;;;;8.59;79.53;100082.63;4952947;28;20134;-48
2022/11/27 05:26:37;;;;;;;26.58;5.93;;;;;;;8.56;79.53;100089.66;4969640;28;20053;-46
2022/11/27 05:29:05;;;;;;;24.40;4.47;;;;;;;8.55;79.57;100081.75;4970455;28;20464;-46
2022/11/27 05:31:33;;;;;;;27.30;7.00;;;;;;;8.52;79.63;100082.44;4970216;28;20105;-47
2022/11/27 05:34:00;;;;;;;18.27;3.65;;;;;;;8.49;79.71;100075.66;4969426;28;20476;-49
2022/11/27 05:36:28;;;;;;;25.90;8.18;;;;;;;8.48;79.49;100076.00;4970400;28;20050;-47
2022/11/27 05:38:54;;;;;;;21.73;6.28;;;;;;;8.49;79.66;100091.41;4965819;28;20045;-47
2022/11/27 05:41:22;;;;;;;26.27;4.40;;;;;;;8.47;79.71;100090.94;4970224;28;20397;-46
2022/11/27 05:43:49;;;;;;;25.48;3.90;;;;;;;8.48;79.58;100081.50;4968510;28;20050;-46
2022/11/27 05:46:21;;;;;;;25.77;4.65;;;;;;;8.48;79.63;100098.06;4969938;28;20055;-46
2022/11/27 05:48:50;;;;;;;17.15;5.20;;;;;;;8.46;79.50;100083.81;4969980;28;20051;-48
2022/11/27 05:51:17;;;;;;;28.90;5.60;;;;;;;8.44;79.57;100077.84;4969993;28;20053;-46
2022/11/27 05:53:44;;;;;;;30.48;5.00;;;;;;;8.41;79.68;100086.81;4969392;28;20504;-49
2022/11/27 05:56:14;;;;;;;34.50;5.53;;;;;;;8.38;79.74;100082.78;4969533;28;20105;-45
2022/11/27 05:58:43;;;;;;;25.27;5.22;;;;;;;8.35;79.82;100088.19;4969909;28;20078;-47
2022/11/27 06:01:13;;;;;;;28.10;6.20;;;;;;;8.33;79.91;100079.47;4967499;28;20105;-54
2022/11/27 06:03:42;;;;;;;25.58;6.22;;;;;;;8.30;79.89;100074.63;4967015;28;20058;-53
2022/11/27 06:06:16;;;;;;;27.38;4.50;;;;;;;8.26;79.99;100073.72;4969436;28;20055;-46
2022/11/27 06:08:44;;;;;;;20.73;4.85;;;;;;;8.25;79.97;100072.09;4969579;28;20074;-46
2022/11/27 06:11:14;;;;;;;24.65;4.07;;;;;;;8.24;80.21;100084.25;4969171;28;20051;-47
2022/11/27 06:13:41;;;;;;;39.50;6.78;;;;;;;8.22;80.08;100073.59;4969462;28;20452;-47
2022/11/27 06:16:17;;;;;;;30.63;6.57;;;;;;;8.23;80.26;100075.19;4969065;28;20423;-46
2022/11/27 06:18:47;;;;;;;27.98;5.03;;;;;;;8.24;80.10;100075.97;4967721;28;20370;-51
2022/11/27 06:21:14;;;;;;;22.25;4.03;;;;;;;8.23;80.32;100082.66;4967680;28;20074;-46
2022/11/27 06:23:42;;;;;;;27.67;4.28;;;;;;;8.22;80.40;100083.81;4952021;28;20130;-46
2022/11/27 06:26:15;;;;;;;27.70;5.32;;;;;;;8.22;80.25;100083.81;4969403;28;20193;-48
2022/11/27 06:28:43;;;;;;;26.17;4.72;;;;;;;8.20;80.31;100078.66;4955756;28;20075;-47
2022/11/27 06:31:12;;;;;;;18.67;3.47;;;;;;;8.18;80.54;100085.66;4968932;28;20331;-46
2022/11/27 06:33:50;;;;;;;35.45;5.40;;;;;;;8.17;80.68;100082.09;4967412;28;20047;-49
2022/11/27 06:36:17;;;;;;;21.10;4.18;;;;;;;8.18;80.63;100082.91;4968155;28;20058;-48
2022/11/27 06:38:45;;;;;;;25.60;5.55;;;;;;;8.15;80.67;100087.16;4968880;28;20457;-47
2022/11/27 06:41:20;;;;;;;22.98;6.00;;;;;;;8.14;80.74;100084.72;4969216;28;20417;-46
2022/11/27 06:43:47;;;;;;;22.88;5.40;;;;;;;8.12;80.88;100087.84;4968581;28;20085;-51
2022/11/27 06:46:18;;;;;;;18.25;4.45;;;;;;;8.10;80.88;100081.06;4968398;28;20043;-47
2022/11/27 06:48:47;;;;;;;27.13;5.88;;;;;;;8.10;80.94;100078.31;4951649;28;20061;-46
2022/11/27 06:51:17;;;;;;;27.73;6.63;;;;;;;8.08;80.96;100084.16;4966750;28;20058;-46
2022/11/27 06:53:44;;;;;;;29.42;4.95;;;;;;;8.04;81.04;100080.47;4965174;28;20058;-50
2022/11/27 06:56:14;;;;;;;30.45;5.95;;;;;;;8.03;81.16;100075.28;4968589;28;20042;-50
2022/11/27 06:58:41;;;;;;;19.05;5.32;;;;;;;8.01;81.32;100072.09;4968483;28;20058;-46
2022/11/27 07:01:12;;;;;;;16.17;3.85;;;;;;;7.99;81.33;100073.22;4968084;28;20564;-47
2022/11/27 07:03:40;;;;;;;25.15;4.75;;;;;;;8.00;81.56;100071.28;4967891;28;20053;-46
2022/11/27 07:06:10;;;;;;;30.67;5.60;;;;;;;8.02;81.54;100068.19;4968751;28;20054;-48
2022/11/27 07:08:37;;;;;;;25.55;4.72;;;;;;;8.02;81.63;100073.72;4963830;28;20058;-47
2022/11/27 07:11:10;;;;;;;29.23;5.35;;;;;;;7.99;81.62;100067.72;4967708;28;20054;-47
2022/11/27 07:13:37;;;;;;;26.85;5.28;;;;;;;7.99;81.83;100072.44;4968515;28;20082;-47
2022/11/27 07:16:07;;;;;;;28.83;4.40;;;;;;;7.99;81.83;100064.97;4968130;28;20031;-46
2022/11/27 07:18:40;;;;;;;26.42;4.80;;;;;;;8.03;81.92;100061.50;4951213;28;20050;-48
2022/11/27 07:21:08;;;;;;;35.67;4.78;;;;;;;8.02;82.02;100065.44;4967880;28;20047;-49
2022/11/27 07:23:36;;;;;;;38.25;7.07;;;;;;;8.04;82.17;100060.38;4950515;28;20508;-46
2022/11/27 07:26:11;;;;;;;31.45;7.15;;;;;;;8.06;82.20;100052.56;4967525;28;20091;-50
2022/11/27 07:28:42;;;;;;;20.15;4.85;;;;;;;8.03;82.05;100051.28;4968122;28;20522;-47
2022/11/27 07:31:11;;;;;;;24.98;4.35;;;;;;;8.05;82.24;100042.69;4950418;28;20551;-47
2022/11/27 07:33:39;;;;;;;20.67;3.88;;;;;;;8.06;82.32;100052.56;4956956;28;20051;-46
2022/11/27 07:36:20;;;;;;;31.88;6.28;;;;;;;8.04;82.28;100041.09;4956823;28;20055;-47
2022/11/27 07:38:48;;;;;;;29.27;4.50;;;;;;;8.03;82.30;100036.72;4962155;28;20047;-46
2022/11/27 07:41:15;;;;;;;20.42;4.80;;;;;;;8.03;82.58;100036.72;4968112;28;20097;-46
2022/11/27 07:43:43;;;;;;;23.30;4.22;;;;;;;8.04;82.57;100038.31;4968138;28;20058;-50
2022/11/27 07:46:16;;;;;;;24.98;4.22;;;;;;;8.05;82.67;100034.44;4955480;28;20046;-46
2022/11/27 07:48:44;;;;;;;23.02;5.13;;;;;;;8.05;82.68;100034.44;4965932;28;20090;-47
2022/11/27 07:51:13;;;;;;;18.58;3.80;;;;;;;8.04;82.78;100032.81;4963352;28;20105;-46
2022/11/27 07:53:40;;;;;;;16.55;5.60;;;;;;;8.04;82.85;100024.53;4965500;28;20108;-49
2022/11/27 07:56:10;;;;;;;32.05;6.25;;;;;;;8.05;82.76;100017.88;4968618;28;20043;-52
2022/11/27 07:58:37;;;;;;;24.02;3.75;;;;;;;8.07;82.80;100023.84;4968408;28;20046;-46
2022/11/27 08:01:09;;;;;;;20.83;4.35;;;;;;;8.09;82.92;100030.63;4949986;28;20055;-46
2022/11/27 08:03:37;;;;;;;26.20;5.50;;;;;;;8.10;83.03;100031.44;4967894;28;20054;-46
2022/11/27 08:06:11;;;;;;;18.05;4.38;;;;;;;8.12;83.05;100026.38;4965280;28;20074;-47
2022/11/27 08:08:38;;;;;;;19.70;4.00;;;;;;;8.14;83.01;100026.81;4950566;28;20560;-47
2022/11/27 08:11:05;;;;;;;24.48;5.57;;;;;;;8.17;83.01;100029.69;4967294;28;20043;-47
2022/11/27 08:13:32;;;;;;;13.52;3.50;;;;;;;8.19;82.92;100024.63;4967806;28;20035;-52
2022/11/27 08:15:59;;;;;;;28.20;5.05;;;;;;;8.24;82.94;100018.06;4967632;28;20050;-49
2022/11/27 08:18:26;;;;;;;24.98;4.88;;;;;;;8.28;82.89;100010.75;4967683;28;20413;-46
2022/11/27 08:20:52;;;;;;;22.60;4.32;;;;;;;8.32;82.86;100019.94;4968170;28;20544;-47
2022/11/27 08:23:19;;;;;;;21.38;4.82;;;;;;;8.35;82.82;100013.72;4948198;28;20047;-48
2022/11/27 08:25:47;;;;;;;29.98;6.60;;;;;;;8.37;82.83;100014.19;4952162;28;20484;-49
2022/11/27 08:28:14;;;;;;;15.82;3.20;;;;;;;8.39;82.71;100004.41;4969310;28;20035;-49
2022/11/27 08:30:41;;;;;;;22.02;4.95;;;;;;;8.43;82.76;100023.81;4968904;28;20074;-48
2022/11/27 08:33:09;;;;;;;26.58;4.65;;;;;;;8.45;82.64;100016.00;4969181;28;20039;-51
2022/11/27 08:35:36;;;;;;;28.95;6.00;;;;;;;8.48;82.53;100009.78;4972840;28;20121;-51
2022/11/27 08:38:05;;;;;;;18.77;4.75;;;;;;;8.48;82.55;100016.09;4972826;28;20688;-46
2022/11/27 08:40:32;;;;;;;23.08;4.40;;;;;;;8.46;82.58;100007.38;4973335;28;20069;-46
2022/11/27 08:42:58;;;;;;;23.05;4.80;;;;;;;8.46;82.53;100009.34;4971660;28;20043;-46
2022/11/27 08:45:25;;;;;;;23.48;4.30;;;;;;;8.45;82.50;100022.31;4972135;28;20093;-46
2022/11/27 08:47:52;;;;;;;24.27;4.57;;;;;;;8.44;82.64;100019.91;4972242;28;20138;-46
2022/11/27 08:50:19;;;;;;;20.63;3.65;;;;;;;8.45;82.65;100014.03;4954494;28;20545;-55
2022/11/27 08:52:46;;;;;;;23.80;4.45;;;;;;;8.47;82.45;100013.72;4964013;28;20516;-46
2022/11/27 08:55:15;;;;;;;26.50;4.20;;;;;;;8.47;82.38;100014.50;4972494;28;20548;-47
2022/11/27 08:57:42;;;;;;;16.63;3.53;;;;;;;8.48;82.33;100015.31;4971398;28;20560;-50
2022/11/27 09:00:12;;;;;;;20.88;4.28;;;;;;;8.47;82.37;100010.97;4972606;28;20055;-47
2022/11/27 09:02:40;;;;;;;22.08;3.90;;;;;;;8.49;82.39;100019.69;4969359;28;20532;-46
2022/11/27 09:05:08;;;;;;;30.38;5.60;;;;;;;8.50;82.27;100018.50;4972681;28;20163;-45
2022/11/27 09:07:35;;;;;;;18.48;3.47;;;;;;;8.51;82.41;100015.41;4972591;28;20047;-45
2022/11/27 09:10:02;;;;;;;21.63;3.65;;;;;;;8.54;82.21;100008.41;4972555;28;20070;-45
2022/11/27 09:12:29;;;;;;;33.38;3.75;;;;;;;8.56;82.18;100011.59;4972447;28;20089;-47
2022/11/27 09:14:56;;;;;;;17.83;4.35;;;;;;;8.58;82.33;100020.31;4970488;28;20067;-51
2022/11/27 09:17:23;;;;;;;21.45;6.05;;;;;;;8.64;82.11;100012.59;4973526;28;20046;-48
2022/11/27 09:19:50;;;;;;;27.90;4.28;;;;;;;8.69;82.16;100015.13;4972546;28;20061;-45
2022/11/27 09:22:17;;;;;;;27.13;4.88;;;;;;;8.70;82.19;100006.50;4972520;28;20507;-46
2022/11/27 09:24:45;;;;;;;21.55;3.40;;;;;;;8.74;82.20;100007.41;4971733;28;20100;-49
2022/11/27 09:27:12;;;;;;;22.15;5.15;;;;;;;8.77;82.12;100005.88;4972062;28;20113;-52
2022/11/27 09:29:40;;;;;;;28.27;4.10;;;;;;;8.82;82.13;100013.91;4971820;28;20560;-48
2022/11/27 09:32:07;;;;;;;19.80;4.13;;;;;;;8.86;82.16;100010.13;4972126;28;20046;-48
2022/11/27 09:34:34;;;;;;;26.10;5.03;;;;;;;8.89;82.09;100009.44;4972484;28;20050;-51
2022/11/27 09:37:04;;;;;;;16.27;3.83;;;;;;;8.92;82.05;99992.13;4971811;28;20394;-53
2022/11/27 09:39:32;;;;;;;22.92;4.07;;;;;;;8.95;82.16;99993.38;4971859;28;20527;-48
2022/11/27 09:42:05;;;;;;;23.13;3.92;;;;;;;8.95;82.17;99983.16;4971771;28;20046;-46
2022/11/27 09:44:50;;;;;;;;;;;;;;;8.96;82.27;99987.53;4971935;28;20125;-46
2022/11/27 09:47:26;;;;;;;23.90;4.85;;;;;;;8.99;82.12;99986.81;4971302;28;19949;-46
2022/11/27 09:50:00;;;;;;;25.10;5.28;;;;;;;9.02;82.15;99986.13;4969174;28;20150;-47
2022/11/27 09:52:39;;;;;;;19.65;4.95;;;;;;;9.06;82.09;99998.06;4953802;28;20042;-46
2022/11/27 09:55:32;;;;;;;22.38;3.83;;;;;;;9.08;82.06;100001.25;4971776;28;20133;-47
2022/11/27 09:58:25;;;;;;;18.00;4.18;;;;;;;9.11;82.13;99997.78;4961213;28;20050;-53
2022/11/27 10:00:52;;;;;;;18.40;3.23;;;;;;;9.14;82.07;100001.81;4971535;28;20038;-46
2022/11/27 10:03:24;;;;;;;18.65;3.53;;;;;;;9.19;82.08;100001.53;4951654;28;20333;-50
2022/11/27 10:06:00;;;;;;;;;;;;;;;9.21;81.90;99999.25;4952677;28;20128;-46
2022/11/27 10:08:38;;;;;;;22.80;4.40;;;;;;;9.24;81.88;99992.22;4952394;28;19923;-49
2022/11/27 10:11:19;;;;;;;20.48;4.78;;;;;;;9.28;81.79;99995.88;4951926;28;20110;-49
2022/11/27 10:14:24;;;;;;;17.52;3.92;;;;;;;9.32;81.83;99999.53;4950917;29;20513;-49
2022/11/27 10:17:08;;;;;;;23.58;4.65;;;;;;;9.34;81.81;99999.97;4960069;28;20039;-50
2022/11/27 10:19:42;;;;;;;24.17;4.03;;;;;;;9.34;81.78;99994.47;4951204;28;20494;-47
2022/11/27 10:22:22;;;;;;;14.88;4.18;;;;;;;9.38;81.76;99998.09;4951881;28;20390;-49
2022/11/27 10:25:13;;;;;;;22.77;3.08;;;;;;;9.40;81.54;99988.28;4951643;28;20050;-46
2022/11/27 10:28:02;;;;;;;17.92;3.30;;;;;;;9.44;81.63;99996.69;4951945;28;20051;-48
2022/11/27 10:30:31;;;;;;;19.23;3.38;;;;;;;9.49;81.43;100004.69;4953770;28;20050;-49
2022/11/27 10:33:01;;;;;;;19.63;4.40;;;;;;;9.52;81.26;100004.81;4951232;28;20110;-47
2022/11/27 10:35:31;;;;;;;24.25;4.03;;;;;;;9.52;81.06;99998.47;4948899;28;20035;-48
2022/11/27 10:38:16;;;;;;;14.95;3.30;;;;;;;9.54;81.09;99998.91;4959821;28;20119;-48
2022/11/27 10:40:53;;;;;;;12.57;2.60;;;;;;;9.55;81.27;99989.47;4937383;29;20045;-46
2022/11/27 10:43:23;;;;;;;16.48;3.10;;;;;;;9.54;80.96;99996.16;4943278;28;20047;-48
2022/11/27 10:46:09;;;;;;;17.92;2.63;;;;;;;9.56;80.75;99985.53;4945658;29;20061;-46
2022/11/27 10:48:36;;;;;;;20.83;3.53;;;;;;;9.58;80.91;99986.78;4951493;29;20055;-46
2022/11/27 10:51:16;;;;;;;15.57;2.60;;;;;;;9.60;80.79;99984.47;4940561;28;20059;-46
2022/11/27 10:53:47;;;;;;;14.60;2.95;;;;;;;9.62;80.81;99984.91;4948371;29;20155;-50
2022/11/27 10:56:32;;;;;;;14.82;2.33;;;;;;;9.63;80.87;99982.97;4949273;28;20180;-46
2022/11/27 10:59:03;;;;;;;24.58;3.33;;;;;;;9.70;80.89;99994.19;4949594;29;20081;-50
2022/11/27 11:01:43;;;;;;;15.68;2.60;;;;;;;9.80;80.60;99985.34;4938756;28;20061;-46
2022/11/27 11:04:14;;;;;;;12.82;2.42;;;;;;;9.86;80.45;99983.91;4966198;28;20055;-47
2022/11/27 11:07:01;;;;;;;15.00;2.42;;;;;;;9.89;80.53;99974.09;4968490;28;20055;-46
2022/11/27 11:09:31;;;;;;;13.75;3.60;;;;;;;9.92;80.54;99976.16;4967022;28;20105;-47
2022/11/27 11:12:17;;;;;;;13.20;3.78;;;;;;;9.97;80.56;99979.44;4967549;28;20086;-48
2022/11/27 11:14:58;;;;;;;12.90;3.08;;;;;;;9.95;80.61;99967.16;4968344;28;20101;-48
2022/11/27 11:17:29;;;;;;;20.65;5.13;;;;;;;9.93;80.49;99958.41;4967901;28;20050;-47
2022/11/27 11:22:27;;;;;;;14.82;2.40;;;;;;;9.94;80.70;99966.34;4916940;29;20188;-46
2022/11/27 11:24:54;;;;;;;16.40;2.85;;;;;;;9.99;80.47;99974.34;4927291;29;20082;-46
2022/11/27 11:27:28;;;;;;;16.77;3.20;;;;;;;10.02;80.29;99968.09;4926734;29;20078;-45
2022/11/27 11:30:03;;;;;;;13.13;2.30;;;;;;;10.05;80.25;99961.84;4908743;29;20091;-46
2022/11/27 11:32:33;;;;;;;17.50;5.68;;;;;;;10.05;80.35;99945.25;4895410;29;20488;-45
2022/11/27 11:35:24;;;;;;;33.20;4.38;;;;;;;10.08;80.43;99952.84;4927649;29;20107;-46
2022/11/27 11:37:52;;;;;;;17.27;2.88;;;;;;;10.12;80.43;99950.97;4928130;29;20068;-49
2022/11/27 11:40:29;;;;;;;17.17;2.63;;;;;;;10.13;80.50;99941.53;4927634;29;20059;-47
2022/11/27 11:42:59;;;;;;;14.52;4.72;;;;;;;10.16;80.50;99940.00;4928456;29;20059;-45
2022/11/27 11:45:32;;;;;;;14.82;3.13;;;;;;;10.19;80.42;99929.00;4928521;29;20493;-47
2022/11/27 11:48:02;;;;;;;16.13;3.05;;;;;;;10.23;80.45;99929.88;4928064;29;20055;-45
2022/11/27 11:50:32;;;;;;;13.75;2.65;;;;;;;10.28;80.45;99929.59;4925671;29;20142;-46